Center Hill Observed Data For Previous 48 Hours

Caption
Day and Hour Reservoir Elevation (behind dam)* Tailwater Elevation (below dam)* Average Hourly Discharge*
5/20/2018 1 AM CDT 631.50 475.10 0
5/20/2018 2 AM CDT 631.50 475.10 0
5/20/2018 3 AM CDT 631.50 475.00 0
5/20/2018 4 AM CDT 631.51 475.01 0
5/20/2018 5 AM CDT 631.51 475.01 0
5/20/2018 6 AM CDT 631.51 479.51 3,380
5/20/2018 7 AM CDT 631.50 480.10 3,380
5/20/2018 8 AM CDT 631.51 477.01 0
5/20/2018 9 AM CDT 631.50 475.90 0
5/20/2018 10 AM CDT 631.49 475.39 0
5/20/2018 11 AM CDT 631.49 475.19 0
5/20/2018 12 PM CDT 631.49 475.09 0
5/20/2018 1 PM CDT 631.50 475.10 0
5/20/2018 2 PM CDT 631.50 475.10 0
5/20/2018 3 PM CDT 631.51 479.51 3,380
5/20/2018 4 PM CDT 631.53 480.03 3,380
5/20/2018 5 PM CDT 631.54 480.24 3,380
5/20/2018 6 PM CDT 631.54 480.24 3,380
5/20/2018 7 PM CDT 631.54 480.24 3,380
5/20/2018 8 PM CDT 631.54 480.24 3,380
5/20/2018 9 PM CDT 631.54 479.22 0
5/20/2018 10 PM CDT 631.54 478.20 0
5/20/2018 11 PM CDT 631.54 477.19 0
5/21/2018 12 AM CDT 631.54 476.17 0
5/21/2018 1 AM CDT 631.55 475.15 0
5/21/2018 2 AM CDT 631.55 475.05 0
5/21/2018 3 AM CDT 631.55 475.05 0
5/21/2018 4 AM CDT 631.57 475.07 0
5/21/2018 5 AM CDT 631.57 479.67 3,380
5/21/2018 6 AM CDT 631.57 476.67 0
5/21/2018 7 AM CDT 631.57 475.57 0
5/21/2018 8 AM CDT 631.59 475.29 0
5/21/2018 9 AM CDT 631.59 475.19 0
5/21/2018 10 AM CDT 631.60 475.10 0
5/21/2018 11 AM CDT 631.60 475.00 0
5/21/2018 12 PM CDT 631.62 475.02 0
5/21/2018 1 PM CDT 631.63 475.03 0
5/21/2018 2 PM CDT 631.63 475.03 0
5/21/2018 3 PM CDT 631.63 475.03 0
5/21/2018 4 PM CDT 631.64 475.04 0
5/21/2018 5 PM CDT 631.65 479.25 3,360
5/21/2018 6 PM CDT 631.64 482.34 6,860
5/21/2018 7 PM CDT 631.63 483.03 6,920
5/21/2018 8 PM CDT 631.61 483.11 6,920
5/21/2018 9 PM CDT 631.58 483.38 6,960
5/21/2018 10 PM CDT 631.54 483.34 6,960
5/21/2018 11 PM CDT 631.53 481.23 3,400
5/22/2018 12 AM CDT 631.53 478.23 0
5/22/2018 1 AM CDT 631.53 478.12 0
5/22/2018 2 AM CDT 631.52 476.72 0
5/22/2018 3 AM CDT 631.52 476.32 0
5/22/2018 4 AM CDT 631.52 476.12 0
5/22/2018 5 AM CDT 631.52 475.12 0
5/22/2018 6 AM CDT 631.52 479.46 3,380
5/22/2018 7 AM CDT 631.52 476.52 0
5/22/2018 8 AM CDT 631.52 475.62 0

Elevations are in feet above sea level. Discharges are in cubic feet per second and are reported at the end of the hour.